sensor_id;sensor_type;location;lat;lon;timestamp;pressure;altitude;pressure_sealevel;temperature;humidity
21111;BME280;10713;51.912;4.494;2023-06-10T00:01:39;101382.34;;;22.22;100.00
21111;BME280;10713;51.912;4.494;2023-06-10T00:04:04;101380.75;;;22.19;100.00
21111;BME280;10713;51.912;4.494;2023-06-10T00:06:30;101382.69;;;22.17;100.00
21111;BME280;10713;51.912;4.494;2023-06-10T00:09:03;101386.69;;;22.12;100.00
21111;BME280;10713;51.912;4.494;2023-06-10T00:11:30;101386.09;;;22.08;100.00
21111;BME280;10713;51.912;4.494;2023-06-10T00:13:56;101390.88;;;22.04;100.00
21111;BME280;10713;51.912;4.494;2023-06-10T00:16:21;101385.97;;;21.98;100.00
21111;BME280;10713;51.912;4.494;2023-06-10T00:18:46;101396.13;;;21.95;100.00
21111;BME280;10713;51.912;4.494;2023-06-10T00:21:12;101395.47;;;21.91;100.00
21111;BME280;10713;51.912;4.494;2023-06-10T00:23:38;101389.59;;;21.86;100.00
21111;BME280;10713;51.912;4.494;2023-06-10T00:26:04;101383.88;;;21.79;100.00
21111;BME280;10713;51.912;4.494;2023-06-10T00:28:30;101395.94;;;21.74;100.00
21111;BME280;10713;51.912;4.494;2023-06-10T00:30:55;101389.34;;;21.67;100.00
21111;BME280;10713;51.912;4.494;2023-06-10T00:33:21;101382.72;;;21.59;100.00
21111;BME280;10713;51.912;4.494;2023-06-10T00:35:46;101386.03;;;21.52;100.00
21111;BME280;10713;51.912;4.494;2023-06-10T00:38:13;101394.44;;;21.47;100.00
21111;BME280;10713;51.912;4.494;2023-06-10T00:40:39;101388.69;;;21.41;100.00
21111;BME280;10713;51.912;4.494;2023-06-10T00:43:06;101389.97;;;21.35;100.00
21111;BME280;10713;51.912;4.494;2023-06-10T00:45:31;101389.31;;;21.31;100.00
21111;BME280;10713;51.912;4.494;2023-06-10T00:47:58;101397.75;;;21.27;100.00
21111;BME280;10713;51.912;4.494;2023-06-10T00:50:23;101397.97;;;21.24;100.00
21111;BME280;10713;51.912;4.494;2023-06-10T00:52:49;101393.78;;;21.20;100.00
21111;BME280;10713;51.912;4.494;2023-06-10T00:55:16;101388.66;;;21.17;100.00
21111;BME280;10713;51.912;4.494;2023-06-10T00:57:44;101404.16;;;21.13;100.00
21111;BME280;10713;51.912;4.494;2023-06-10T01:00:11;101397.31;;;21.09;100.00
21111;BME280;10713;51.912;4.494;2023-06-10T01:02:37;101400.31;;;21.04;100.00
21111;BME280;10713;51.912;4.494;2023-06-10T01:05:03;101389.81;;;21.01;100.00
21111;BME280;10713;51.912;4.494;2023-06-10T01:07:36;101393.69;;;20.97;100.00
21111;BME280;10713;51.912;4.494;2023-06-10T01:10:20;101394.78;;;20.95;100.00
21111;BME280;10713;51.912;4.494;2023-06-10T01:12:57;101389.44;;;20.95;100.00
21111;BME280;10713;51.912;4.494;2023-06-10T01:15:24;101401.13;;;20.93;100.00
21111;BME280;10713;51.912;4.494;2023-06-10T01:20:24;101399.88;;;20.86;100.00
21111;BME280;10713;51.912;4.494;2023-06-10T01:22:52;101388.63;;;20.81;100.00
21111;BME280;10713;51.912;4.494;2023-06-10T01:25:19;101389.69;;;20.79;100.00
21111;BME280;10713;51.912;4.494;2023-06-10T01:27:46;101396.25;;;20.75;100.00
21111;BME280;10713;51.912;4.494;2023-06-10T01:30:19;101404.50;;;20.72;100.00
21111;BME280;10713;51.912;4.494;2023-06-10T01:32:50;101409.38;;;20.66;100.00
21111;BME280;10713;51.912;4.494;2023-06-10T01:35:17;101400.91;;;20.60;100.00
21111;BME280;10713;51.912;4.494;2023-06-10T01:37:46;101400.50;;;20.53;100.00
21111;BME280;10713;51.912;4.494;2023-06-10T01:40:13;101395.31;;;20.50;100.00
21111;BME280;10713;51.912;4.494;2023-06-10T01:42:39;101407.25;;;20.46;100.00
21111;BME280;10713;51.912;4.494;2023-06-10T01:45:05;101389.56;;;20.43;100.00
21111;BME280;10713;51.912;4.494;2023-06-10T01:47:30;101399.41;;;20.43;100.00
21111;BME280;10713;51.912;4.494;2023-06-10T01:49:56;101404.75;;;20.43;100.00
21111;BME280;10713;51.912;4.494;2023-06-10T01:52:21;101397.69;;;20.42;100.00
21111;BME280;10713;51.912;4.494;2023-06-10T01:54:46;101397.81;;;20.40;100.00
21111;BME280;10713;51.912;4.494;2023-06-10T01:57:12;101398.78;;;20.39;100.00
21111;BME280;10713;51.912;4.494;2023-06-10T01:59:37;101407.88;;;20.37;100.00
21111;BME280;10713;51.912;4.494;2023-06-10T02:02:04;101401.69;;;20.36;100.00
21111;BME280;10713;51.912;4.494;2023-06-10T02:04:29;101414.22;;;20.36;100.00
21111;BME280;10713;51.912;4.494;2023-06-10T02:06:55;101407.16;;;20.35;100.00
21111;BME280;10713;51.912;4.494;2023-06-10T02:09:21;101406.41;;;20.33;100.00
21111;BME280;10713;51.912;4.494;2023-06-10T02:11:47;101408.25;;;20.32;100.00
21111;BME280;10713;51.912;4.494;2023-06-10T02:14:14;101398.59;;;20.30;100.00
21111;BME280;10713;51.912;4.494;2023-06-10T02:16:40;101393.53;;;20.25;100.00
21111;BME280;10713;51.912;4.494;2023-06-10T02:19:05;101406.94;;;20.25;100.00
21111;BME280;10713;51.912;4.494;2023-06-10T02:21:32;101399.25;;;20.20;100.00
21111;BME280;10713;51.912;4.494;2023-06-10T02:23:57;101403.09;;;20.16;100.00
21111;BME280;10713;51.912;4.494;2023-06-10T02:26:23;101411.34;;;20.13;100.00
21111;BME280;10713;51.912;4.494;2023-06-10T02:28:51;101416.16;;;20.08;100.00
21111;BME280;10713;51.912;4.494;2023-06-10T02:31:17;101410.09;;;20.06;100.00
21111;BME280;10713;51.912;4.494;2023-06-10T02:33:43;101413.94;;;20.02;100.00
21111;BME280;10713;51.912;4.494;2023-06-10T02:36:09;101415.34;;;19.95;100.00
21111;BME280;10713;51.912;4.494;2023-06-10T02:38:39;101414.78;;;19.90;100.00
21111;BME280;10713;51.912;4.494;2023-06-10T02:41:05;101415.94;;;19.86;100.00
21111;BME280;10713;51.912;4.494;2023-06-10T02:43:31;101416.06;;;19.84;100.00
21111;BME280;10713;51.912;4.494;2023-06-10T02:45:56;101424.19;;;19.83;100.00
21111;BME280;10713;51.912;4.494;2023-06-10T02:48:23;101419.81;;;19.82;100.00
21111;BME280;10713;51.912;4.494;2023-06-10T02:50:49;101416.28;;;19.81;100.00
21111;BME280;10713;51.912;4.494;2023-06-10T02:53:14;101416.38;;;19.79;100.00
21111;BME280;10713;51.912;4.494;2023-06-10T02:55:40;101414.75;;;19.77;100.00
21111;BME280;10713;51.912;4.494;2023-06-10T02:58:06;101415.88;;;19.74;100.00
21111;BME280;10713;51.912;4.494;2023-06-10T03:00:32;101413.38;;;19.71;100.00
21111;BME280;10713;51.912;4.494;2023-06-10T03:02:58;101417.03;;;19.70;100.00
21111;BME280;10713;51.912;4.494;2023-06-10T03:05:27;101422.59;;;19.67;100.00
21111;BME280;10713;51.912;4.494;2023-06-10T03:07:53;101408.53;;;19.64;100.00
21111;BME280;10713;51.912;4.494;2023-06-10T03:10:18;101405.09;;;19.62;100.00
21111;BME280;10713;51.912;4.494;2023-06-10T03:12:44;101408.72;;;19.61;100.00
21111;BME280;10713;51.912;4.494;2023-06-10T03:15:09;101416.09;;;19.57;100.00
21111;BME280;10713;51.912;4.494;2023-06-10T03:17:34;101421.56;;;19.55;100.00
21111;BME280;10713;51.912;4.494;2023-06-10T03:20:00;101418.25;;;19.52;100.00
21111;BME280;10713;51.912;4.494;2023-06-10T03:22:26;101417.50;;;19.50;100.00
21111;BME280;10713;51.912;4.494;2023-06-10T03:24:51;101418.56;;;19.47;100.00
21111;BME280;10713;51.912;4.494;2023-06-10T03:27:16;101419.63;;;19.45;100.00
21111;BME280;10713;51.912;4.494;2023-06-10T03:29:43;101420.78;;;19.41;100.00
21111;BME280;10713;51.912;4.494;2023-06-10T03:32:08;101429.69;;;19.41;100.00
21111;BME280;10713;51.912;4.494;2023-06-10T03:34:33;101428.06;;;19.39;100.00
21111;BME280;10713;51.912;4.494;2023-06-10T03:36:59;101437.91;;;19.38;100.00
21111;BME280;10713;51.912;4.494;2023-06-10T03:39:25;101433.63;;;19.35;100.00
21111;BME280;10713;51.912;4.494;2023-06-10T03:41:50;101433.63;;;19.35;100.00
21111;BME280;10713;51.912;4.494;2023-06-10T03:44:16;101437.28;;;19.34;100.00
21111;BME280;10713;51.912;4.494;2023-06-10T03:46:42;101445.38;;;19.33;100.00
21111;BME280;10713;51.912;4.494;2023-06-10T03:49:07;101448.16;;;19.31;100.00
21111;BME280;10713;51.912;4.494;2023-06-10T03:51:33;101449.25;;;19.29;100.00
21111;BME280;10713;51.912;4.494;2023-06-10T03:53:58;101449.25;;;19.29;100.00
21111;BME280;10713;51.912;4.494;2023-06-10T03:56:23;101449.13;;;19.30;100.00
21111;BME280;10713;51.912;4.494;2023-06-10T03:58:49;101443.00;;;19.28;100.00
21111;BME280;10713;51.912;4.494;2023-06-10T04:01:14;101451.03;;;19.28;100.00
21111;BME280;10713;51.912;4.494;2023-06-10T04:03:40;101446.56;;;19.29;100.00
21111;BME280;10713;51.912;4.494;2023-06-10T04:06:07;101443.88;;;19.29;100.00
21111;BME280;10713;51.912;4.494;2023-06-10T04:08:33;101441.94;;;19.31;100.00
21111;BME280;10713;51.912;4.494;2023-06-10T04:10:58;101445.09;;;19.38;100.00
21111;BME280;10713;51.912;4.494;2023-06-10T04:13:24;101450.59;;;19.62;100.00
21111;BME280;10713;51.912;4.494;2023-06-10T04:15:49;101450.69;;;19.87;100.00
21111;BME280;10713;51.912;4.494;2023-06-10T04:18:15;101445.66;;;20.21;100.00
21111;BME280;10713;51.912;4.494;2023-06-10T04:20:41;101441.00;;;20.48;100.00
21111;BME280;10713;51.912;4.494;2023-06-10T04:23:07;101450.78;;;20.75;100.00
21111;BME280;10713;51.912;4.494;2023-06-10T04:25:32;101452.22;;;20.92;100.00
21111;BME280;10713;51.912;4.494;2023-06-10T04:27:57;101450.34;;;21.05;100.00
21111;BME280;10713;51.912;4.494;2023-06-10T04:30:23;101449.00;;;21.24;100.00
21111;BME280;10713;51.912;4.494;2023-06-10T04:32:48;101460.03;;;21.32;100.00
21111;BME280;10713;51.912;4.494;2023-06-10T04:35:15;101451.09;;;21.31;100.00
21111;BME280;10713;51.912;4.494;2023-06-10T04:37:40;101463.81;;;21.17;100.00
21111;BME280;10713;51.912;4.494;2023-06-10T04:40:07;101459.06;;;20.96;100.00
21111;BME280;10713;51.912;4.494;2023-06-10T04:42:33;101452.16;;;20.68;100.00
21111;BME280;10713;51.912;4.494;2023-06-10T04:44:59;101474.69;;;20.40;100.00
21111;BME280;10713;51.912;4.494;2023-06-10T04:47:25;101469.88;;;20.45;100.00
21111;BME280;10713;51.912;4.494;2023-06-10T04:49:51;101463.69;;;20.94;100.00
21111;BME280;10713;51.912;4.494;2023-06-10T04:52:16;101462.19;;;21.51;100.00
21111;BME280;10713;51.912;4.494;2023-06-10T04:54:43;101461.34;;;21.97;100.00
21111;BME280;10713;51.912;4.494;2023-06-10T04:57:08;101461.56;;;22.40;100.00
21111;BME280;10713;51.912;4.494;2023-06-10T04:59:34;101459.72;;;22.63;100.00
21111;BME280;10713;51.912;4.494;2023-06-10T05:02:03;101458.72;;;22.87;100.00
21111;BME280;10713;51.912;4.494;2023-06-10T05:04:28;101461.28;;;22.88;100.00
21111;BME280;10713;51.912;4.494;2023-06-10T05:06:55;101459.06;;;23.05;100.00
21111;BME280;10713;51.912;4.494;2023-06-10T05:09:20;101460.94;;;23.36;100.00
21111;BME280;10713;51.912;4.494;2023-06-10T05:11:46;101462.16;;;23.44;100.00
21111;BME280;10713;51.912;4.494;2023-06-10T05:14:11;101460.84;;;23.59;100.00
21111;BME280;10713;51.912;4.494;2023-06-10T05:16:37;101448.59;;;23.87;100.00
21111;BME280;10713;51.912;4.494;2023-06-10T05:19:02;101457.41;;;24.10;100.00
21111;BME280;10713;51.912;4.494;2023-06-10T05:21:28;101451.16;;;24.40;100.00
21111;BME280;10713;51.912;4.494;2023-06-10T05:23:53;101458.88;;;24.45;100.00
21111;BME280;10713;51.912;4.494;2023-06-10T05:26:19;101463.06;;;24.59;98.66
21111;BME280;10713;51.912;4.494;2023-06-10T05:28:45;101459.59;;;24.97;96.29
21111;BME280;10713;51.912;4.494;2023-06-10T05:31:10;101445.38;;;24.85;95.66
21111;BME280;10713;51.912;4.494;2023-06-10T05:33:35;101457.75;;;24.98;93.06
21111;BME280;10713;51.912;4.494;2023-06-10T05:36:01;101449.81;;;25.06;90.63
21111;BME280;10713;51.912;4.494;2023-06-10T05:38:27;101446.72;;;25.20;88.96
21111;BME280;10713;51.912;4.494;2023-06-10T05:40:52;101449.16;;;25.23;89.62
21111;BME280;10713;51.912;4.494;2023-06-10T05:43:17;101454.28;;;25.36;87.74
21111;BME280;10713;51.912;4.494;2023-06-10T05:45:43;101459.94;;;25.13;86.23
21111;BME280;10713;51.912;4.494;2023-06-10T05:48:08;101455.94;;;24.98;84.45
21111;BME280;10713;51.912;4.494;2023-06-10T05:50:34;101458.03;;;24.94;84.65
21111;BME280;10713;51.912;4.494;2023-06-10T05:53:04;101468.22;;;25.22;84.00
21111;BME280;10713;51.912;4.494;2023-06-10T05:55:29;101453.44;;;25.35;81.60
21111;BME280;10713;51.912;4.494;2023-06-10T05:57:59;101464.78;;;25.29;79.96
21111;BME280;10713;51.912;4.494;2023-06-10T06:00:25;101457.69;;;25.38;82.09
21111;BME280;10713;51.912;4.494;2023-06-10T06:02:51;101457.16;;;25.44;80.64
21111;BME280;10713;51.912;4.494;2023-06-10T06:05:17;101460.94;;;25.61;79.92
21111;BME280;10713;51.912;4.494;2023-06-10T06:07:43;101460.94;;;25.61;78.83
21111;BME280;10713;51.912;4.494;2023-06-10T06:10:08;101453.00;;;25.59;78.26
21111;BME280;10713;51.912;4.494;2023-06-10T06:12:34;101459.41;;;25.68;78.35
21111;BME280;10713;51.912;4.494;2023-06-10T06:14:59;101469.06;;;25.80;77.94
21111;BME280;10713;51.912;4.494;2023-06-10T06:17:24;101459.94;;;25.72;77.66
21111;BME280;10713;51.912;4.494;2023-06-10T06:19:50;101457.69;;;25.87;76.93
21111;BME280;10713;51.912;4.494;2023-06-10T06:22:15;101461.41;;;25.86;76.86
21111;BME280;10713;51.912;4.494;2023-06-10T06:24:44;101466.34;;;26.00;76.70
21111;BME280;10713;51.912;4.494;2023-06-10T06:27:10;101468.13;;;26.28;75.23
21111;BME280;10713;51.912;4.494;2023-06-10T06:29:35;101466.97;;;26.31;74.77
21111;BME280;10713;51.912;4.494;2023-06-10T06:32:01;101458.44;;;26.73;73.08
21111;BME280;10713;51.912;4.494;2023-06-10T06:34:26;101469.84;;;26.94;71.93
21111;BME280;10713;51.912;4.494;2023-06-10T06:36:51;101460.16;;;26.92;70.30
21111;BME280;10713;51.912;4.494;2023-06-10T06:39:17;101465.22;;;27.05;69.43
21111;BME280;10713;51.912;4.494;2023-06-10T06:41:42;101465.59;;;27.10;68.63
21111;BME280;10713;51.912;4.494;2023-06-10T06:44:07;101468.81;;;27.23;68.26
21111;BME280;10713;51.912;4.494;2023-06-10T06:46:33;101473.94;;;27.62;66.13
21111;BME280;10713;51.912;4.494;2023-06-10T06:48:58;101468.72;;;27.87;64.06
21111;BME280;10713;51.912;4.494;2023-06-10T06:51:23;101468.84;;;28.03;62.30
21111;BME280;10713;51.912;4.494;2023-06-10T06:53:49;101468.72;;;28.04;62.06
21111;BME280;10713;51.912;4.494;2023-06-10T06:56:16;101471.75;;;28.27;61.41
21111;BME280;10713;51.912;4.494;2023-06-10T06:58:42;101468.34;;;27.99;60.97
21111;BME280;10713;51.912;4.494;2023-06-10T07:01:07;101473.69;;;28.17;60.58
21111;BME280;10713;51.912;4.494;2023-06-10T07:03:32;101476.28;;;28.27;58.95
21111;BME280;10713;51.912;4.494;2023-06-10T07:05:58;101481.72;;;28.45;57.98
21111;BME280;10713;51.912;4.494;2023-06-10T07:08:23;101484.97;;;28.57;57.70
21111;BME280;10713;51.912;4.494;2023-06-10T07:10:48;101482.38;;;28.47;57.96
21111;BME280;10713;51.912;4.494;2023-06-10T07:13:14;101477.16;;;28.54;56.51
21111;BME280;10713;51.912;4.494;2023-06-10T07:15:39;101476.34;;;28.35;56.46
21111;BME280;10713;51.912;4.494;2023-06-10T07:18:05;101480.59;;;28.38;55.83
21111;BME280;10713;51.912;4.494;2023-06-10T07:20:30;101484.47;;;28.35;56.43
21111;BME280;10713;51.912;4.494;2023-06-10T07:22:55;101476.50;;;28.60;55.73
21111;BME280;10713;51.912;4.494;2023-06-10T07:25:21;101478.09;;;28.70;55.57
21111;BME280;10713;51.912;4.494;2023-06-10T07:27:46;101493.50;;;28.70;55.19
21111;BME280;10713;51.912;4.494;2023-06-10T07:30:12;101495.53;;;28.60;54.66
21111;BME280;10713;51.912;4.494;2023-06-10T07:32:38;101479.00;;;28.45;55.37
21111;BME280;10713;51.912;4.494;2023-06-10T07:35:05;101486.28;;;28.87;54.73
21111;BME280;10713;51.912;4.494;2023-06-10T07:37:31;101485.75;;;28.83;53.46
21111;BME280;10713;51.912;4.494;2023-06-10T07:39:56;101483.94;;;28.92;53.09
21111;BME280;10713;51.912;4.494;2023-06-10T07:42:21;101474.97;;;29.00;52.38
21111;BME280;10713;51.912;4.494;2023-06-10T07:44:47;101477.63;;;29.34;52.36
21111;BME280;10713;51.912;4.494;2023-06-10T07:47:12;101472.41;;;29.65;51.98
21111;BME280;10713;51.912;4.494;2023-06-10T07:49:39;101478.16;;;29.86;50.97
21111;BME280;10713;51.912;4.494;2023-06-10T07:52:05;101484.28;;;30.05;50.44
21111;BME280;10713;51.912;4.494;2023-06-10T07:54:30;101483.75;;;30.26;49.92
21111;BME280;10713;51.912;4.494;2023-06-10T07:56:56;101484.63;;;29.94;49.50
21111;BME280;10713;51.912;4.494;2023-06-10T07:59:21;101483.25;;;29.90;49.11
21111;BME280;10713;51.912;4.494;2023-06-10T08:01:46;101479.31;;;30.17;49.03
21111;BME280;10713;51.912;4.494;2023-06-10T08:04:12;101477.06;;;30.45;47.65
21111;BME280;10713;51.912;4.494;2023-06-10T08:06:37;101484.91;;;30.40;47.00
21111;BME280;10713;51.912;4.494;2023-06-10T08:09:03;101478.16;;;30.67;46.74
21111;BME280;10713;51.912;4.494;2023-06-10T08:11:29;101481.81;;;30.90;45.93
21111;BME280;10713;51.912;4.494;2023-06-10T08:13:55;101479.69;;;31.09;45.23
21111;BME280;10713;51.912;4.494;2023-06-10T08:16:20;101486.19;;;30.60;44.86
21111;BME280;10713;51.912;4.494;2023-06-10T08:18:45;101480.59;;;30.53;44.72
21111;BME280;10713;51.912;4.494;2023-06-10T08:21:11;101481.88;;;30.74;44.72
21111;BME280;10713;51.912;4.494;2023-06-10T08:23:36;101477.34;;;30.97;44.59
21111;BME280;10713;51.912;4.494;2023-06-10T08:26:02;101482.00;;;30.89;43.91
21111;BME280;10713;51.912;4.494;2023-06-10T08:28:27;101478.03;;;31.00;43.80
21111;BME280;10713;51.912;4.494;2023-06-10T08:30:52;101485.69;;;30.65;44.03
21111;BME280;10713;51.912;4.494;2023-06-10T08:33:18;101485.44;;;30.74;43.72
21111;BME280;10713;51.912;4.494;2023-06-10T08:35:43;101486.47;;;30.82;43.63
21111;BME280;10713;51.912;4.494;2023-06-10T08:38:09;101480.88;;;31.06;43.24
21111;BME280;10713;51.912;4.494;2023-06-10T08:40:34;101487.41;;;30.97;42.61
21111;BME280;10713;51.912;4.494;2023-06-10T08:43:07;101485.84;;;30.63;41.81
21111;BME280;10713;51.912;4.494;2023-06-10T08:45:37;101481.28;;;30.47;42.43
21111;BME280;10713;51.912;4.494;2023-06-10T08:48:03;101472.78;;;30.50;42.70
21111;BME280;10713;51.912;4.494;2023-06-10T08:50:35;101489.22;;;30.73;42.73
21111;BME280;10713;51.912;4.494;2023-06-10T08:53:05;101481.16;;;30.88;43.03
21111;BME280;10713;51.912;4.494;2023-06-10T08:57:59;101487.63;;;31.18;42.67
21111;BME280;10713;51.912;4.494;2023-06-10T09:00:26;101491.25;;;31.42;42.12
21111;BME280;10713;51.912;4.494;2023-06-10T09:02:51;101485.06;;;31.48;41.66
21111;BME280;10713;51.912;4.494;2023-06-10T09:05:17;101472.44;;;31.70;41.48
21111;BME280;10713;51.912;4.494;2023-06-10T09:07:46;101481.38;;;31.79;40.93
21111;BME280;10713;51.912;4.494;2023-06-10T09:10:12;101490.69;;;31.93;40.69
21111;BME280;10713;51.912;4.494;2023-06-10T09:12:38;101487.81;;;32.09;40.73
21111;BME280;10713;51.912;4.494;2023-06-10T09:15:04;101497.22;;;32.06;38.74
21111;BME280;10713;51.912;4.494;2023-06-10T09:17:30;101486.63;;;31.66;39.37
21111;BME280;10713;51.912;4.494;2023-06-10T09:19:56;101485.44;;;31.45;39.37
21111;BME280;10713;51.912;4.494;2023-06-10T09:22:22;101488.03;;;31.38;38.90
21111;BME280;10713;51.912;4.494;2023-06-10T09:24:48;101491.38;;;31.17;38.53
21111;BME280;10713;51.912;4.494;2023-06-10T09:27:14;101483.00;;;31.19;38.46
21111;BME280;10713;51.912;4.494;2023-06-10T09:29:53;101482.47;;;31.24;38.82
21111;BME280;10713;51.912;4.494;2023-06-10T09:32:19;101487.03;;;31.39;39.44
21111;BME280;10713;51.912;4.494;2023-06-10T09:34:45;101489.50;;;31.49;39.51
21111;BME280;10713;51.912;4.494;2023-06-10T09:37:11;101480.25;;;31.73;39.58
21111;BME280;10713;51.912;4.494;2023-06-10T09:39:39;101487.88;;;31.78;38.38
21111;BME280;10713;51.912;4.494;2023-06-10T09:42:25;101486.31;;;31.83;38.52
21111;BME280;10713;51.912;4.494;2023-06-10T09:44:51;101477.66;;;31.80;38.62
21111;BME280;10713;51.912;4.494;2023-06-10T09:47:23;101482.50;;;31.93;37.39
21111;BME280;10713;51.912;4.494;2023-06-10T09:49:49;101477.31;;;31.60;37.57
21111;BME280;10713;51.912;4.494;2023-06-10T09:52:21;101481.56;;;31.39;38.39
21111;BME280;10713;51.912;4.494;2023-06-10T09:54:47;101489.13;;;31.21;38.03
21111;BME280;10713;51.912;4.494;2023-06-10T09:57:12;101480.34;;;31.42;38.86
21111;BME280;10713;51.912;4.494;2023-06-10T09:59:38;101463.69;;;31.75;38.17
21111;BME280;10713;51.912;4.494;2023-06-10T10:02:03;101485.66;;;31.58;37.74
21111;BME280;10713;51.912;4.494;2023-06-10T10:04:29;101482.63;;;31.53;38.28
21111;BME280;10713;51.912;4.494;2023-06-10T10:06:55;101492.59;;;31.15;38.64
21111;BME280;10713;51.912;4.494;2023-06-10T10:09:20;101479.81;;;31.15;37.82
21111;BME280;10713;51.912;4.494;2023-06-10T10:11:46;101474.50;;;31.22;38.36
21111;BME280;10713;51.912;4.494;2023-06-10T10:14:14;101476.31;;;31.53;38.93
21111;BME280;10713;51.912;4.494;2023-06-10T10:16:42;101483.19;;;31.49;39.13
21111;BME280;10713;51.912;4.494;2023-06-10T10:19:12;101465.91;;;31.56;39.14
21111;BME280;10713;51.912;4.494;2023-06-10T10:21:53;101475.56;;;31.82;38.78
21111;BME280;10713;51.912;4.494;2023-06-10T10:24:21;101472.66;;;31.83;38.60
21111;BME280;10713;51.912;4.494;2023-06-10T10:26:49;101474.66;;;31.90;38.33
21111;BME280;10713;51.912;4.494;2023-06-10T10:29:31;101464.47;;;31.83;38.38
21111;BME280;10713;51.912;4.494;2023-06-10T10:31:59;101472.19;;;31.80;38.26
21111;BME280;10713;51.912;4.494;2023-06-10T10:37:43;101467.91;;;31.62;38.39
21111;BME280;10713;51.912;4.494;2023-06-10T10:40:10;101463.97;;;31.65;37.93
21111;BME280;10713;51.912;4.494;2023-06-10T10:42:36;101476.19;;;31.69;37.71
21111;BME280;10713;51.912;4.494;2023-06-10T10:45:02;101482.81;;;31.52;37.80
21111;BME280;10713;51.912;4.494;2023-06-10T10:47:28;101478.84;;;31.31;36.96
21111;BME280;10713;51.912;4.494;2023-06-10T10:49:57;101466.88;;;31.09;37.43
21111;BME280;10713;51.912;4.494;2023-06-10T10:52:27;101462.47;;;31.39;37.08
21111;BME280;10713;51.912;4.494;2023-06-10T10:54:53;101457.16;;;31.61;36.95
21111;BME280;10713;51.912;4.494;2023-06-10T10:57:22;101460.94;;;31.60;36.48
21111;BME280;10713;51.912;4.494;2023-06-10T10:59:53;101462.03;;;31.51;36.42
21111;BME280;10713;51.912;4.494;2023-06-10T11:05:01;101455.91;;;31.49;36.88
21111;BME280;10713;51.912;4.494;2023-06-10T11:07:30;101467.84;;;31.48;37.11
21111;BME280;10713;51.912;4.494;2023-06-10T11:09:59;101454.13;;;31.56;36.47
21111;BME280;10713;51.912;4.494;2023-06-10T11:12:26;101457.78;;;31.71;36.13
21111;BME280;10713;51.912;4.494;2023-06-10T11:14:55;101451.69;;;31.61;35.74
21111;BME280;10713;51.912;4.494;2023-06-10T11:17:21;101450.56;;;31.55;36.50
21111;BME280;10713;51.912;4.494;2023-06-10T11:19:47;101454.88;;;31.50;36.74
21111;BME280;10713;51.912;4.494;2023-06-10T11:22:21;101453.97;;;31.57;35.95
21111;BME280;10713;51.912;4.494;2023-06-10T11:24:50;101448.09;;;31.46;36.15
21111;BME280;10713;51.912;4.494;2023-06-10T11:27:20;101431.13;;;31.35;36.64
21111;BME280;10713;51.912;4.494;2023-06-10T11:30:18;101447.22;;;31.22;36.63
21111;BME280;10713;51.912;4.494;2023-06-10T11:32:44;101437.44;;;31.05;36.64
21111;BME280;10713;51.912;4.494;2023-06-10T11:35:10;101435.94;;;31.02;36.93
21111;BME280;10713;51.912;4.494;2023-06-10T11:37:36;101436.09;;;31.01;36.19
21111;BME280;10713;51.912;4.494;2023-06-10T11:40:02;101433.00;;;30.81;36.25
21111;BME280;10713;51.912;4.494;2023-06-10T11:42:27;101440.81;;;30.84;35.01
21111;BME280;10713;51.912;4.494;2023-06-10T11:44:54;101422.53;;;30.53;34.29
21111;BME280;10713;51.912;4.494;2023-06-10T11:47:20;101428.03;;;30.45;34.81
21111;BME280;10713;51.912;4.494;2023-06-10T11:49:46;101421.78;;;30.20;35.35
21111;BME280;10713;51.912;4.494;2023-06-10T11:52:26;101429.63;;;30.15;35.50
21111;BME280;10713;51.912;4.494;2023-06-10T11:54:55;101431.50;;;30.14;35.79
21111;BME280;10713;51.912;4.494;2023-06-10T11:57:21;101423.69;;;30.03;35.36
21111;BME280;10713;51.912;4.494;2023-06-10T11:59:46;101429.97;;;30.12;35.80
21111;BME280;10713;51.912;4.494;2023-06-10T12:02:15;101426.28;;;29.96;35.18
21111;BME280;10713;51.912;4.494;2023-06-10T12:04:41;101407.16;;;30.13;35.75
21111;BME280;10713;51.912;4.494;2023-06-10T12:07:07;101412.59;;;30.21;35.80
21111;BME280;10713;51.912;4.494;2023-06-10T12:09:32;101416.22;;;30.05;34.84
21111;BME280;10713;51.912;4.494;2023-06-10T12:12:05;101413.69;;;29.87;35.55
21111;BME280;10713;51.912;4.494;2023-06-10T12:14:56;101413.72;;;29.71;35.85
21111;BME280;10713;51.912;4.494;2023-06-10T12:19:50;101412.84;;;29.70;35.95
21111;BME280;10713;51.912;4.494;2023-06-10T12:22:15;101428.31;;;29.61;36.22
21111;BME280;10713;51.912;4.494;2023-06-10T12:24:57;101413.19;;;29.51;36.55
21111;BME280;10713;51.912;4.494;2023-06-10T12:27:24;101390.41;;;29.52;36.69
21111;BME280;10713;51.912;4.494;2023-06-10T12:29:53;101424.25;;;29.57;35.94
21111;BME280;10713;51.912;4.494;2023-06-10T12:32:37;101412.03;;;29.53;35.65
21111;BME280;10713;51.912;4.494;2023-06-10T12:35:04;101416.81;;;29.68;35.71
21111;BME280;10713;51.912;4.494;2023-06-10T12:37:30;101407.75;;;29.75;35.67
21111;BME280;10713;51.912;4.494;2023-06-10T12:40:00;101402.09;;;29.93;36.13
21111;BME280;10713;51.912;4.494;2023-06-10T12:42:26;101407.19;;;30.04;35.91
21111;BME280;10713;51.912;4.494;2023-06-10T12:44:54;101408.72;;;29.99;35.29
21111;BME280;10713;51.912;4.494;2023-06-10T12:47:29;101412.84;;;29.86;35.74
21111;BME280;10713;51.912;4.494;2023-06-10T12:49:57;101399.44;;;29.77;35.55
21111;BME280;10713;51.912;4.494;2023-06-10T12:52:23;101424.28;;;29.66;35.07
21111;BME280;10713;51.912;4.494;2023-06-10T12:54:49;101408.63;;;29.68;34.81
21111;BME280;10713;51.912;4.494;2023-06-10T12:57:14;101411.66;;;29.56;34.88